createdAt,value
2018-03-06T00:00:35.335Z,10.33
2018-03-06T00:02:37.820Z,10.13
2018-03-06T00:04:40.344Z,10.13
2018-03-06T00:06:42.806Z,9.83
2018-03-06T00:08:45.300Z,9.97
2018-03-06T00:10:47.800Z,10.20
2018-03-06T00:12:50.310Z,10.10
2018-03-06T00:14:52.888Z,10.80
2018-03-06T00:16:56.879Z,10.80
2018-03-06T00:18:59.335Z,10.00
2018-03-06T00:21:01.853Z,10.47
2018-03-06T00:23:04.308Z,10.77
2018-03-06T00:25:06.873Z,10.53
2018-03-06T00:27:09.374Z,11.13
2018-03-06T00:29:11.969Z,11.07
2018-03-06T00:31:14.567Z,11.27
2018-03-06T00:33:17.025Z,10.60
2018-03-06T00:35:19.521Z,10.60
2018-03-06T00:37:21.996Z,11.63
2018-03-06T00:39:24.546Z,11.80
2018-03-06T00:41:27.014Z,10.70
2018-03-06T00:43:29.525Z,10.80
2018-03-06T00:45:32.025Z,10.80
2018-03-06T00:47:34.496Z,10.43
2018-03-06T00:49:37.084Z,11.10
2018-03-06T00:51:39.699Z,11.33
2018-03-06T00:53:42.140Z,11.00
2018-03-06T00:55:44.709Z,11.63
2018-03-06T00:57:47.384Z,12.20
2018-03-06T00:59:49.849Z,11.53
2018-03-06T01:01:52.406Z,11.30
2018-03-06T01:03:54.967Z,11.57
2018-03-06T01:05:57.437Z,11.03
2018-03-06T01:07:59.926Z,11.13
2018-03-06T01:10:02.387Z,11.80
2018-03-06T01:12:04.939Z,10.80
2018-03-06T01:14:07.493Z,12.20
2018-03-06T01:16:09.956Z,11.90
2018-03-06T01:18:12.430Z,12.03
2018-03-06T01:20:14.917Z,11.77
2018-03-06T01:22:17.431Z,11.33
2018-03-06T01:24:19.994Z,11.30
2018-03-06T01:26:22.482Z,11.20
2018-03-06T01:28:25.089Z,11.93
2018-03-06T01:30:27.641Z,12.13
2018-03-06T01:32:30.089Z,11.60
2018-03-06T01:34:32.668Z,11.40
2018-03-06T01:36:35.154Z,11.40
2018-03-06T01:38:37.989Z,11.83
2018-03-06T01:40:40.487Z,11.73
2018-03-06T01:42:42.962Z,11.93
2018-03-06T01:44:45.445Z,11.57
2018-03-06T01:46:48.039Z,13.03
2018-03-06T01:48:50.531Z,12.30
2018-03-06T01:50:53.006Z,11.70
2018-03-06T01:52:55.621Z,11.67
2018-03-06T01:54:58.125Z,11.80
2018-03-06T01:57:00.616Z,12.47
2018-03-06T01:59:03.204Z,12.17
2018-03-06T02:01:05.665Z,11.80
2018-03-06T02:03:08.162Z,12.00
2018-03-06T02:05:10.620Z,11.57
2018-03-06T02:07:13.110Z,11.37
2018-03-06T02:09:15.565Z,12.20
2018-03-06T02:11:18.124Z,12.60
2018-03-06T02:13:20.605Z,12.40
2018-03-06T02:15:23.090Z,11.40
2018-03-06T02:17:25.656Z,12.10
2018-03-06T02:19:28.228Z,11.33
2018-03-06T02:21:30.656Z,12.07
2018-03-06T02:23:33.126Z,11.70
2018-03-06T02:25:35.664Z,12.30
2018-03-06T02:27:38.210Z,11.87
2018-03-06T02:29:40.678Z,13.30
2018-03-06T02:31:43.140Z,13.03
2018-03-06T02:33:45.601Z,13.40
2018-03-06T02:35:48.182Z,13.67
2018-03-06T02:37:50.650Z,12.97
2018-03-06T02:39:53.186Z,13.60
2018-03-06T02:41:55.759Z,13.20
2018-03-06T02:43:58.353Z,13.37
2018-03-06T02:46:10.428Z,14.30
2018-03-06T02:48:12.957Z,13.27
2018-03-06T02:50:15.530Z,13.90
2018-03-06T02:52:17.986Z,14.40
2018-03-06T02:54:20.547Z,12.77
2018-03-06T02:56:23.142Z,14.50
2018-03-06T02:58:25.610Z,13.67
2018-03-06T03:00:28.052Z,12.73
2018-03-06T03:02:30.545Z,13.70
2018-03-06T03:04:33.115Z,14.10
2018-03-06T03:06:35.720Z,13.27
2018-03-06T03:08:38.197Z,13.47
2018-03-06T03:10:40.671Z,13.70
2018-03-06T03:12:43.182Z,15.07
2018-03-06T03:14:45.667Z,14.57
2018-03-06T03:16:48.276Z,15.70
2018-03-06T03:18:50.766Z,15.93
2018-03-06T03:20:53.287Z,16.20
2018-03-06T03:22:55.787Z,16.70
2018-03-06T03:24:58.243Z,17.77
2018-03-06T03:27:00.752Z,16.87
2018-03-06T03:29:03.198Z,16.80
2018-03-06T03:31:05.760Z,18.70
2018-03-06T03:33:08.236Z,16.73
2018-03-06T03:35:10.746Z,17.60
2018-03-06T03:37:13.234Z,18.07
2018-03-06T03:39:15.708Z,18.50
2018-03-06T03:41:18.498Z,18.23
2018-03-06T03:43:21.008Z,17.50
2018-03-06T03:45:23.586Z,19.10
2018-03-06T03:47:26.062Z,18.87
2018-03-06T03:49:28.780Z,19.33
2018-03-06T03:51:31.222Z,18.30
2018-03-06T03:53:33.766Z,17.50
2018-03-06T03:55:36.362Z,19.77
2018-03-06T03:57:38.818Z,21.03
2018-03-06T03:59:41.346Z,18.90
2018-03-06T04:01:43.943Z,19.80
2018-03-06T04:03:46.437Z,20.93
2018-03-06T04:05:48.902Z,21.77
2018-03-06T04:07:51.420Z,21.07
2018-03-06T04:09:53.886Z,20.03
2018-03-06T04:11:56.404Z,20.90
2018-03-06T04:13:58.850Z,20.73
2018-03-06T04:16:01.348Z,21.30
2018-03-06T04:18:03.804Z,22.10
2018-03-06T04:20:06.381Z,20.63
2018-03-06T04:22:08.970Z,20.60
2018-03-06T04:24:11.453Z,20.23
2018-03-06T04:26:13.959Z,21.43
2018-03-06T04:28:16.461Z,20.60
2018-03-06T04:30:19.048Z,20.90
2018-03-06T04:32:21.542Z,21.67
2018-03-06T04:34:24.031Z,21.13
2018-03-06T04:36:26.608Z,22.10
2018-03-06T04:38:29.089Z,23.03
2018-03-06T04:40:31.593Z,24.37
2018-03-06T04:42:34.108Z,22.90
2018-03-06T04:44:36.613Z,22.40
2018-03-06T04:46:39.099Z,23.00
2018-03-06T04:48:41.694Z,23.37
2018-03-06T04:50:44.192Z,24.20
2018-03-06T04:52:46.648Z,26.03
2018-03-06T04:54:49.108Z,26.37
2018-03-06T04:56:51.594Z,26.97
2018-03-06T04:58:54.056Z,24.70
2018-03-06T05:00:56.651Z,24.73
2018-03-06T05:02:59.149Z,25.40
2018-03-06T05:05:01.622Z,24.63
2018-03-06T05:07:04.134Z,26.03
2018-03-06T05:09:06.592Z,25.03
2018-03-06T05:11:09.044Z,25.07
2018-03-06T05:13:11.584Z,25.20
2018-03-06T05:15:14.042Z,24.47
2018-03-06T05:17:16.591Z,24.97
2018-03-06T05:19:19.193Z,23.83
2018-03-06T05:21:21.641Z,25.00
2018-03-06T05:23:24.178Z,24.90
2018-03-06T05:25:26.637Z,24.37
2018-03-06T05:27:29.114Z,23.10
2018-03-06T05:29:31.589Z,24.40
2018-03-06T05:31:34.084Z,24.20
2018-03-06T05:33:36.553Z,25.27
2018-03-06T05:35:39.121Z,24.20
2018-03-06T05:37:41.589Z,24.50
2018-03-06T05:39:44.069Z,23.57
2018-03-06T05:41:46.616Z,24.40
2018-03-06T05:43:49.217Z,24.87
2018-03-06T05:45:51.812Z,23.80
2018-03-06T05:47:54.308Z,24.97
2018-03-06T05:49:56.801Z,25.40
2018-03-06T05:51:59.385Z,27.23
2018-03-06T05:54:01.986Z,26.10
2018-03-06T05:56:04.473Z,27.63
2018-03-06T05:58:06.969Z,26.03
2018-03-06T06:00:09.469Z,25.43
2018-03-06T06:02:12.017Z,26.90
2018-03-06T06:04:14.554Z,27.90
2018-03-06T06:06:17.088Z,25.30
2018-03-06T06:08:19.569Z,28.93
2018-03-06T06:10:22.139Z,28.30
2018-03-06T06:12:24.637Z,26.97
2018-03-06T06:14:27.117Z,27.50
2018-03-06T06:16:29.610Z,27.57
2018-03-06T06:18:32.069Z,27.30
2018-03-06T06:20:34.595Z,26.53
2018-03-06T06:22:37.093Z,29.63
2018-03-06T06:24:39.688Z,27.20
2018-03-06T06:26:42.113Z,26.90
2018-03-06T06:28:44.569Z,25.43
2018-03-06T06:30:47.060Z,27.47
2018-03-06T06:32:49.529Z,27.10
2018-03-06T06:34:52.003Z,26.17
2018-03-06T06:36:54.462Z,22.93
2018-03-06T06:38:56.959Z,24.00
2018-03-06T06:40:59.406Z,24.03
2018-03-06T06:43:01.920Z,24.03
2018-03-06T06:45:04.518Z,24.27
2018-03-06T06:47:07.031Z,25.27
2018-03-06T06:49:09.619Z,24.43
2018-03-06T06:51:12.066Z,26.53
2018-03-06T06:53:14.590Z,28.20
2018-03-06T06:55:17.055Z,27.20
2018-03-06T06:57:19.530Z,25.60
2018-03-06T06:59:22.029Z,25.57
2018-03-06T07:01:24.565Z,25.77
2018-03-06T07:03:27.013Z,26.10
2018-03-06T07:05:29.473Z,25.80
2018-03-06T07:07:32.039Z,27.03
2018-03-06T07:09:34.638Z,27.60
2018-03-06T07:11:37.115Z,27.67
2018-03-06T07:13:39.620Z,27.30
2018-03-06T07:15:42.146Z,27.83
2018-03-06T07:17:44.605Z,27.63
2018-03-06T07:19:47.109Z,26.63
2018-03-06T07:21:49.578Z,28.03
2018-03-06T07:23:52.089Z,27.20
2018-03-06T07:25:54.594Z,32.10
2018-03-06T07:27:57.179Z,29.77
2018-03-06T07:29:59.627Z,29.00
2018-03-06T07:32:02.161Z,27.53
2018-03-06T07:34:04.655Z,27.73
2018-03-06T07:36:07.250Z,28.10
2018-03-06T07:38:09.789Z,29.60
2018-03-06T07:40:12.218Z,28.00
2018-03-06T07:42:15.525Z,26.63
2018-03-06T07:44:17.993Z,29.40
2018-03-06T07:46:20.541Z,28.93
2018-03-06T07:48:23.012Z,28.40
2018-03-06T07:50:25.520Z,27.63
2018-03-06T07:52:27.994Z,27.03
2018-03-06T07:54:30.509Z,28.20
2018-03-06T07:56:32.967Z,27.37
2018-03-06T07:58:35.406Z,27.30
2018-03-06T08:00:37.948Z,26.90
2018-03-06T08:02:40.355Z,25.70
2018-03-06T08:04:42.843Z,26.10
2018-03-06T08:06:45.361Z,25.27
2018-03-06T08:08:47.816Z,26.07
2018-03-06T08:10:50.381Z,24.57
2018-03-06T08:12:52.820Z,23.60
2018-03-06T08:14:55.295Z,24.33
2018-03-06T08:16:57.798Z,24.43
2018-03-06T08:19:00.325Z,24.83
2018-03-06T08:21:02.816Z,26.60
2018-03-06T08:23:05.281Z,26.17
2018-03-06T08:25:07.780Z,24.87
2018-03-06T08:27:10.396Z,25.50
2018-03-06T08:29:12.836Z,25.60
2018-03-06T08:31:15.381Z,25.50
2018-03-06T08:33:17.982Z,26.07
2018-03-06T08:35:20.446Z,25.73
2018-03-06T08:37:22.970Z,26.60
2018-03-06T08:39:25.498Z,27.40
2018-03-06T08:41:28.054Z,27.17
2018-03-06T08:43:30.500Z,26.20
2018-03-06T08:45:32.975Z,26.00
2018-03-06T08:47:35.534Z,27.03
2018-03-06T08:49:38.028Z,26.80
2018-03-06T08:51:40.520Z,26.97
2018-03-06T08:53:42.959Z,25.90
2018-03-06T08:55:45.470Z,26.23
2018-03-06T08:57:47.937Z,27.83
2018-03-06T08:59:50.491Z,27.23
2018-03-06T09:01:52.946Z,26.47
2018-03-06T09:03:55.424Z,27.57
2018-03-06T09:05:57.940Z,28.13
2018-03-06T09:08:00.467Z,26.60
2018-03-06T09:10:02.909Z,27.50
2018-03-06T09:12:05.392Z,27.60
2018-03-06T09:14:07.950Z,27.60
2018-03-06T09:16:10.486Z,27.90
2018-03-06T09:18:12.989Z,27.87
2018-03-06T09:20:15.523Z,26.93
2018-03-06T09:22:17.941Z,27.47
2018-03-06T09:24:20.412Z,28.80
2018-03-06T09:26:22.943Z,27.77
2018-03-06T09:28:25.501Z,27.10
2018-03-06T09:30:28.094Z,26.13
2018-03-06T09:32:30.580Z,25.37
2018-03-06T09:34:33.184Z,27.87
2018-03-06T09:36:35.683Z,28.00
2018-03-06T09:38:38.141Z,26.67
2018-03-06T09:40:40.620Z,25.30
2018-03-06T09:42:43.153Z,27.10
2018-03-06T09:44:45.610Z,27.13
2018-03-06T09:46:48.037Z,25.53
2018-03-06T09:48:50.537Z,27.33
2018-03-06T09:50:52.985Z,28.17
2018-03-06T09:52:55.500Z,25.80
2018-03-06T09:54:58.011Z,26.33
2018-03-06T09:57:00.484Z,25.07
2018-03-06T09:59:02.958Z,26.40
2018-03-06T10:01:05.447Z,27.13
2018-03-06T10:03:07.902Z,25.13
2018-03-06T10:05:10.420Z,26.50
2018-03-06T10:07:12.868Z,25.53
2018-03-06T10:09:15.465Z,25.30
2018-03-06T10:11:17.959Z,26.80
2018-03-06T10:13:20.445Z,24.87
2018-03-06T10:15:22.908Z,25.73
2018-03-06T10:17:25.402Z,24.87
2018-03-06T10:19:28.050Z,25.97
2018-03-06T10:21:30.625Z,26.50
2018-03-06T10:23:33.077Z,26.43
2018-03-06T10:25:35.610Z,25.97
2018-03-06T10:27:38.057Z,27.30
2018-03-06T10:29:40.600Z,27.90
2018-03-06T10:31:43.063Z,27.20
2018-03-06T10:33:45.598Z,27.17
2018-03-06T10:35:48.181Z,27.50
2018-03-06T10:37:50.673Z,27.20
2018-03-06T10:39:53.266Z,26.47
2018-03-06T10:41:55.790Z,27.20
2018-03-06T10:43:58.283Z,29.10
2018-03-06T10:46:00.754Z,28.50
2018-03-06T10:48:03.346Z,30.00
2018-03-06T10:50:05.836Z,29.90
2018-03-06T10:52:08.304Z,29.20
2018-03-06T10:54:10.938Z,31.03
2018-03-06T10:56:13.419Z,31.60
2018-03-06T10:58:16.007Z,31.70
2018-03-06T11:00:23.985Z,31.63
2018-03-06T11:02:32.462Z,31.43
2018-03-06T11:04:35.064Z,31.23
2018-03-06T11:06:37.657Z,31.60
2018-03-06T11:08:40.145Z,30.73
2018-03-06T11:10:42.641Z,31.47
2018-03-06T11:12:45.107Z,31.40
2018-03-06T11:14:47.607Z,31.50
2018-03-06T11:16:50.131Z,34.23
2018-03-06T11:18:52.585Z,33.60
2018-03-06T11:20:55.074Z,33.93
2018-03-06T11:22:57.596Z,33.63
2018-03-06T11:25:00.069Z,33.00
2018-03-06T11:27:02.542Z,35.80
2018-03-06T11:29:05.088Z,35.30
2018-03-06T11:31:07.666Z,33.60
2018-03-06T11:33:10.183Z,33.27
2018-03-06T11:35:12.659Z,35.03
2018-03-06T11:37:15.166Z,35.53
2018-03-06T11:39:17.742Z,35.20
2018-03-06T11:41:20.241Z,39.40
2018-03-06T11:43:22.718Z,35.87
2018-03-06T11:45:25.233Z,36.37
2018-03-06T11:47:27.752Z,37.07
2018-03-06T11:49:30.278Z,37.63
2018-03-06T11:51:32.753Z,37.00
2018-03-06T11:53:35.242Z,38.43
2018-03-06T11:55:37.696Z,38.27
2018-03-06T11:57:40.158Z,38.73
2018-03-06T11:59:42.692Z,38.97
2018-03-06T12:01:45.192Z,39.00
2018-03-06T12:03:47.695Z,38.73
2018-03-06T12:05:50.261Z,39.23
2018-03-06T12:07:52.712Z,41.07
2018-03-06T12:09:55.267Z,41.17
2018-03-06T12:11:57.842Z,40.50
2018-03-06T12:14:00.304Z,39.60
2018-03-06T12:16:02.938Z,38.90
2018-03-06T12:18:05.417Z,40.57
2018-03-06T12:20:07.918Z,41.20
2018-03-06T12:22:10.469Z,40.10
2018-03-06T12:24:13.003Z,40.23
2018-03-06T12:26:15.517Z,42.30
2018-03-06T12:28:17.996Z,41.20
2018-03-06T12:30:20.482Z,42.53
2018-03-06T12:32:22.972Z,39.93
2018-03-06T12:34:25.477Z,41.07
2018-03-06T12:36:27.958Z,42.97
2018-03-06T12:38:30.393Z,41.00
2018-03-06T12:40:32.908Z,39.57
2018-03-06T12:42:35.417Z,40.90
2018-03-06T12:44:37.894Z,40.40
2018-03-06T12:46:40.427Z,39.70
2018-03-06T12:48:42.894Z,40.23
2018-03-06T12:50:45.363Z,38.07
2018-03-06T12:52:47.908Z,40.37
2018-03-06T12:54:50.502Z,40.10
2018-03-06T12:56:52.908Z,39.10
2018-03-06T12:58:55.390Z,39.70
2018-03-06T13:00:57.923Z,39.87
2018-03-06T13:03:00.374Z,41.10
2018-03-06T13:05:02.968Z,39.77
2018-03-06T13:07:05.475Z,39.93
2018-03-06T13:09:08.055Z,40.97
2018-03-06T13:11:10.579Z,41.73
2018-03-06T13:13:13.110Z,40.67
2018-03-06T13:15:15.593Z,40.97
2018-03-06T13:17:18.128Z,38.37
2018-03-06T13:19:20.659Z,36.87
2018-03-06T13:21:23.130Z,35.60
2018-03-06T13:23:25.720Z,37.37
2018-03-06T13:25:28.165Z,34.90
2018-03-06T13:27:30.650Z,36.17
2018-03-06T13:29:33.149Z,36.53
2018-03-06T13:31:35.600Z,34.63
2018-03-06T13:33:38.084Z,35.03
2018-03-06T13:35:40.575Z,33.60
2018-03-06T13:37:43.076Z,34.50
2018-03-06T13:39:45.587Z,35.70
2018-03-06T13:41:48.069Z,36.93
2018-03-06T13:43:50.647Z,37.70
2018-03-06T13:45:53.152Z,35.93
2018-03-06T13:47:55.729Z,39.50
2018-03-06T13:49:58.192Z,39.60
2018-03-06T13:52:00.718Z,39.17
2018-03-06T13:54:03.329Z,39.47
2018-03-06T13:56:05.810Z,41.17
2018-03-06T13:58:08.268Z,41.57
2018-03-06T14:00:10.718Z,40.57
2018-03-06T14:02:13.286Z,41.77
2018-03-06T14:04:15.883Z,42.73
2018-03-06T14:06:18.333Z,43.40
2018-03-06T14:08:20.822Z,43.00
2018-03-06T14:10:23.361Z,44.07
2018-03-06T14:12:25.820Z,41.70
2018-03-06T14:14:28.368Z,42.50
2018-03-06T14:16:30.839Z,42.80
2018-03-06T14:18:33.283Z,44.47
2018-03-06T14:20:35.829Z,44.30
2018-03-06T14:22:38.324Z,43.20
2018-03-06T14:24:40.830Z,44.63
2018-03-06T14:26:47.957Z,44.80
2018-03-06T14:28:50.429Z,42.63
2018-03-06T14:30:53.003Z,45.23
2018-03-06T14:32:55.471Z,43.00
2018-03-06T14:34:57.983Z,45.37
2018-03-06T14:37:00.585Z,43.83
2018-03-06T14:39:03.076Z,46.13
2018-03-06T14:41:05.672Z,45.20
2018-03-06T14:43:08.131Z,44.40
2018-03-06T14:45:10.589Z,45.40
2018-03-06T14:47:13.060Z,44.77
2018-03-06T14:49:15.515Z,43.90
2018-03-06T14:51:18.011Z,45.33
2018-03-06T14:53:20.540Z,43.27
2018-03-06T14:55:22.984Z,44.73
2018-03-06T14:57:25.514Z,46.60
2018-03-06T14:59:28.113Z,46.30
2018-03-06T15:01:30.642Z,47.90
2018-03-06T15:03:34.331Z,47.10
2018-03-06T15:05:36.819Z,43.97
2018-03-06T15:07:39.306Z,45.40
2018-03-06T15:09:41.820Z,44.90
2018-03-06T15:11:44.309Z,46.50
2018-03-06T15:13:46.810Z,44.40
2018-03-06T15:15:49.286Z,44.13
2018-03-06T15:17:51.747Z,45.47
2018-03-06T15:19:54.252Z,46.70
2018-03-06T15:21:56.740Z,47.03
2018-03-06T15:23:59.219Z,45.97
2018-03-06T15:26:01.689Z,44.77
2018-03-06T15:28:04.237Z,45.37
2018-03-06T15:30:06.832Z,46.80
2018-03-06T15:32:09.430Z,46.17
2018-03-06T15:34:12.010Z,44.67
2018-03-06T15:36:14.456Z,47.43
2018-03-06T15:38:16.914Z,44.97
2018-03-06T15:40:19.437Z,46.80
2018-03-06T15:42:21.898Z,45.50
2018-03-06T15:44:24.350Z,49.20
2018-03-06T15:46:26.884Z,44.37
2018-03-06T15:48:29.373Z,46.10
2018-03-06T15:50:31.982Z,47.27
2018-03-06T15:52:34.469Z,45.10
2018-03-06T15:54:37.058Z,45.90
2018-03-06T15:56:39.523Z,47.00
2018-03-06T15:58:42.042Z,43.87
2018-03-06T16:00:44.550Z,44.53
2018-03-06T16:02:47.036Z,47.20
2018-03-06T16:04:49.726Z,46.53
2018-03-06T16:06:52.187Z,45.73
2018-03-06T16:08:54.689Z,45.07
2018-03-06T16:10:57.221Z,46.10
2018-03-06T16:12:59.688Z,44.60
2018-03-06T16:15:02.147Z,46.60
2018-03-06T16:17:04.659Z,46.80
2018-03-06T16:19:07.192Z,46.03
2018-03-06T16:21:09.717Z,47.00
2018-03-06T16:23:12.372Z,48.30
2018-03-06T16:25:14.845Z,45.83
2018-03-06T16:27:17.465Z,46.17
2018-03-06T16:29:19.920Z,46.03
2018-03-06T16:31:22.455Z,47.80
2018-03-06T16:33:24.941Z,47.60
2018-03-06T16:35:27.413Z,48.83
2018-03-06T16:37:29.942Z,46.93
2018-03-06T16:39:32.398Z,49.90
2018-03-06T16:41:34.906Z,48.90
2018-03-06T16:43:37.477Z,48.40
2018-03-06T16:45:40.063Z,49.37
2018-03-06T16:47:42.676Z,50.80
2018-03-06T16:49:45.191Z,51.93
2018-03-06T16:51:47.685Z,51.33
2018-03-06T16:53:50.221Z,54.00
2018-03-06T16:55:52.786Z,51.97
2018-03-06T16:57:55.266Z,51.13
2018-03-06T16:59:57.749Z,52.10
2018-03-06T17:02:00.761Z,54.47
2018-03-06T17:04:03.472Z,55.40
2018-03-06T17:06:06.003Z,54.43
2018-03-06T17:08:08.496Z,55.53
2018-03-06T17:10:11.046Z,55.07
2018-03-06T17:12:13.540Z,53.23
2018-03-06T17:14:16.076Z,50.60
2018-03-06T17:16:18.731Z,53.20
2018-03-06T17:18:21.202Z,54.30
2018-03-06T17:20:23.678Z,55.60
2018-03-06T17:22:26.236Z,53.33
2018-03-06T17:24:28.806Z,55.33
2018-03-06T17:26:31.307Z,57.13
2018-03-06T17:28:33.786Z,55.30
2018-03-06T17:30:36.274Z,54.77
2018-03-06T17:32:38.980Z,53.17
2018-03-06T17:34:41.477Z,54.73
2018-03-06T17:36:44.001Z,54.27
2018-03-06T17:38:46.558Z,54.47
2018-03-06T17:40:49.053Z,52.90
2018-03-06T17:42:51.527Z,55.27
2018-03-06T17:44:54.041Z,54.40
2018-03-06T17:46:57.678Z,56.20
2018-03-06T17:49:00.265Z,54.13
2018-03-06T17:51:02.849Z,56.73
2018-03-06T17:53:05.342Z,55.97
2018-03-06T17:55:07.838Z,54.80
2018-03-06T17:57:10.353Z,52.67
2018-03-06T17:59:12.865Z,54.93
2018-03-06T18:01:15.371Z,55.00
2018-03-06T18:03:17.916Z,54.60
2018-03-06T18:05:20.478Z,56.63
2018-03-06T18:07:22.942Z,54.23
2018-03-06T18:09:25.531Z,54.70
2018-03-06T18:11:28.024Z,54.37
2018-03-06T18:13:30.590Z,55.57
2018-03-06T18:15:33.180Z,57.13
2018-03-06T18:17:35.698Z,53.30
2018-03-06T18:19:38.172Z,54.30
2018-03-06T18:21:40.707Z,53.13
2018-03-06T18:23:43.174Z,54.40
2018-03-06T18:25:45.647Z,56.20
2018-03-06T18:27:48.237Z,55.93
2018-03-06T18:29:50.731Z,56.40
2018-03-06T18:31:53.233Z,55.50
2018-03-06T18:33:55.822Z,53.90
2018-03-06T18:35:58.312Z,59.00
2018-03-06T18:38:00.907Z,54.47
2018-03-06T18:40:03.401Z,56.03
2018-03-06T18:42:05.860Z,56.67
2018-03-06T18:44:08.329Z,56.90
2018-03-06T18:46:10.986Z,57.67
2018-03-06T18:48:13.538Z,57.60
2018-03-06T18:50:27.703Z,57.57
2018-03-06T18:52:30.244Z,56.77
2018-03-06T18:54:32.732Z,56.10
2018-03-06T18:56:35.212Z,55.80
2018-03-06T18:58:37.713Z,56.37
2018-03-06T19:01:00.934Z,57.47
2018-03-06T19:03:10.429Z,56.57
2018-03-06T19:05:24.797Z,56.07
2018-03-06T19:07:27.396Z,55.87
2018-03-06T19:09:29.931Z,53.70
2018-03-06T19:11:32.477Z,57.70
2018-03-06T19:13:34.993Z,56.23
2018-03-06T19:15:37.493Z,56.30
2018-03-06T19:17:40.042Z,53.93
2018-03-06T19:19:42.618Z,58.20
2018-03-06T19:21:45.149Z,56.07
2018-03-06T19:23:47.664Z,56.40
2018-03-06T19:25:50.235Z,58.33
2018-03-06T19:27:53.145Z,57.93
2018-03-06T19:29:55.635Z,56.83
2018-03-06T19:31:58.112Z,59.07
2018-03-06T19:34:00.822Z,59.50
2018-03-06T19:36:03.459Z,58.50
2018-03-06T19:38:06.180Z,57.23
2018-03-06T19:40:08.719Z,57.70
2018-03-06T19:42:11.492Z,56.47
2018-03-06T19:44:14.057Z,57.33
2018-03-06T19:46:16.574Z,56.80
2018-03-06T19:48:19.299Z,54.60
2018-03-06T19:50:21.895Z,57.60
2018-03-06T19:52:24.388Z,57.90
2018-03-06T19:54:26.917Z,57.87
2018-03-06T19:56:29.459Z,58.13
2018-03-06T19:58:31.890Z,58.80
2018-03-06T20:00:34.460Z,56.47
2018-03-06T20:02:37.250Z,56.93
2018-03-06T20:04:39.840Z,57.63
2018-03-06T20:06:42.651Z,58.53
2018-03-06T20:08:45.193Z,59.37
2018-03-06T20:10:47.655Z,57.40
2018-03-06T20:12:50.193Z,58.70
2018-03-06T20:14:58.214Z,58.47
2018-03-06T20:17:01.011Z,58.37
2018-03-06T20:19:09.335Z,59.27
2018-03-06T20:21:11.846Z,57.40
2018-03-06T20:23:14.523Z,58.20
2018-03-06T20:25:22.730Z,56.97
2018-03-06T20:27:25.290Z,56.20
2018-03-06T20:29:27.729Z,56.20
2018-03-06T20:31:35.766Z,53.60
2018-03-06T20:33:38.293Z,55.27
2018-03-06T20:35:40.831Z,57.30
2018-03-06T20:37:43.677Z,58.37
2018-03-06T20:39:51.799Z,57.03
2018-03-06T20:41:54.405Z,58.83
2018-03-06T20:43:56.864Z,58.23
2018-03-06T20:46:04.965Z,60.27
2018-03-06T20:48:07.486Z,58.13
2018-03-06T20:50:10.015Z,57.73
2018-03-06T20:52:12.540Z,59.53
2018-03-06T20:54:20.535Z,60.10
2018-03-06T20:56:23.097Z,58.10
2018-03-06T20:58:25.614Z,57.87
2018-03-06T21:00:28.208Z,57.07
2018-03-06T21:02:30.732Z,57.03
2018-03-06T21:04:33.219Z,57.80
2018-03-06T21:06:35.718Z,56.20
2018-03-06T21:08:38.236Z,54.03
2018-03-06T21:10:40.723Z,54.07
2018-03-06T21:12:43.256Z,56.40
2018-03-06T21:14:45.757Z,53.80
2018-03-06T21:16:48.364Z,55.73
2018-03-06T21:18:50.960Z,53.70
2018-03-06T21:20:53.508Z,56.70
2018-03-06T21:22:55.984Z,53.33
2018-03-06T21:24:58.646Z,53.00
2018-03-06T21:27:01.113Z,54.30
2018-03-06T21:29:03.625Z,52.60
2018-03-06T21:31:06.131Z,55.63
2018-03-06T21:33:08.610Z,55.57
2018-03-06T21:35:11.238Z,57.63
2018-03-06T21:37:14.616Z,56.80
2018-03-06T21:39:17.118Z,58.40
2018-03-06T21:41:19.640Z,58.57
2018-03-06T21:43:22.301Z,58.27
2018-03-06T21:45:24.762Z,57.13
2018-03-06T21:47:27.291Z,58.67
2018-03-06T21:49:29.800Z,56.07
2018-03-06T21:51:32.304Z,57.77
2018-03-06T21:53:34.761Z,54.50
2018-03-06T21:55:37.245Z,57.93
2018-03-06T21:57:39.749Z,56.10
2018-03-06T21:59:42.269Z,56.80
2018-03-06T22:01:44.781Z,57.60
2018-03-06T22:03:47.247Z,59.10
2018-03-06T22:05:49.712Z,56.57
2018-03-06T22:07:52.321Z,58.43
2018-03-06T22:09:54.891Z,55.00
2018-03-06T22:11:57.426Z,57.60
2018-03-06T22:13:59.975Z,56.00
2018-03-06T22:16:02.597Z,58.40
2018-03-06T22:18:05.174Z,55.40
2018-03-06T22:20:07.665Z,59.03
2018-03-06T22:22:10.140Z,55.20
2018-03-06T22:24:12.594Z,54.10
2018-03-06T22:26:15.086Z,62.67
2018-03-06T22:28:17.635Z,60.33
2018-03-06T22:30:20.190Z,61.17
2018-03-06T22:32:22.648Z,57.20
2018-03-06T22:34:25.144Z,62.37
2018-03-06T22:36:27.685Z,62.23
2018-03-06T22:38:30.137Z,60.00
2018-03-06T22:40:32.725Z,60.57
2018-03-06T22:42:35.245Z,63.60
2018-03-06T22:44:38.827Z,58.17
2018-03-06T22:46:41.341Z,58.60
2018-03-06T22:48:43.810Z,58.30
2018-03-06T22:50:46.346Z,60.10
2018-03-06T22:52:48.842Z,62.60
2018-03-06T22:54:51.322Z,59.60
2018-03-06T22:56:53.792Z,59.60
2018-03-06T22:58:56.270Z,61.20
2018-03-06T23:00:58.738Z,59.17
2018-03-06T23:03:01.245Z,61.10
2018-03-06T23:05:03.751Z,62.57
2018-03-06T23:07:06.241Z,60.67
2018-03-06T23:09:08.700Z,59.07
2018-03-06T23:11:11.200Z,59.07
2018-03-06T23:13:13.661Z,58.33
2018-03-06T23:15:16.217Z,58.90
2018-03-06T23:19:44.547Z,60.83
2018-03-06T23:21:47.037Z,61.73
2018-03-06T23:23:49.483Z,62.03
2018-03-06T23:25:51.982Z,62.40
2018-03-06T23:27:54.467Z,62.17
2018-03-06T23:29:56.957Z,63.13
2018-03-06T23:31:59.546Z,63.30
2018-03-06T23:34:02.052Z,65.20
2018-03-06T23:36:04.516Z,62.13
2018-03-06T23:38:07.016Z,61.37
2018-03-06T23:40:09.581Z,59.57
2018-03-06T23:42:12.040Z,57.50
2018-03-06T23:44:14.514Z,57.47
2018-03-06T23:46:16.976Z,60.20
2018-03-06T23:48:19.557Z,60.10
2018-03-06T23:50:22.041Z,61.40
2018-03-06T23:52:24.638Z,56.60
2018-03-06T23:54:27.234Z,62.57
2018-03-06T23:56:29.826Z,59.10
2018-03-06T23:58:32.321Z,62.23
